Terminal Aerodrome Forecast
Issued by NWS

Home | Current Version | Previous Version | Text Only | Print | Product List | Glossary On
Versions: 1 2 3 4 5 6 7 8 9 10 11 12 13 14 15 16 17 18 19 20 21 22
000
FTUS41 KBOX 132338
TAFBAF
TAF
KBAF 132338Z 1400/1424 29010G22KT P6SM FEW250
     FM140300 25007KT P6SM OVC100
     FM140600 25005KT P6SM VCSH OVC040
     FM140900 VRB03KT 3SM -SN OVC050
     FM141000 VRB03KT P6SM VCSH BKN045
     FM141500 31010KT P6SM BKN060=

USA.gov is the U.S. government's official web portal to all federal, state and local government web resources and services.